Terminal Aerodrome Forecast
Issued by NWS Detroit/Pontiac, MI

Home | Current Version | Previous Version | Text Only | Print | Product List | Glossary On
Versions: 1 2 3 4 5 6 7 8 9 10 11 12 13 14 15 16 17 18 19 20 21 22 23 24
389
FTUS43 KDTX 281805 AAA
TAFDTW
TAF AMD
KDTW 281805Z 2818/2924 04012G20KT P6SM SCT040 SCT120
      TEMPO 2818/2820 6SM -SHRA BKN045
     FM282000 02014KT P6SM FEW050 SCT100
     FM290200 02008KT P6SM SKC
     FM291800 04013G19KT P6SM SCT060=

USA.gov is the U.S. government's official web portal to all federal, state and local government web resources and services.